Broadview Heights, Ohio
Current Conditions -  °F | °C
As of 4:51 PM on Sunday 21 Dec 2014 (Local Time) from KCLE Reporting Station
Haze Haze  
Wind Chill: 23°   Ceiling: 2200
Heat Index: 30°   Visibility: 6mi
Dew Point: 22°   Wind: 7mph
Humidity: 72%   Direction: 140°SE
Pressure: 30.28"   Gusts: NA
Location:  41.33°N, 81.68°W
Report Text: KCLE 212151Z 14006KT 6SM HZ OVC022 M01/M06 A3028 RMK AO2 SLP263 T10111056 $
Loading
Personal Weather Stations






























Interactive Weather Map New forecast layout! Learn more

10-Day Weather Forecast

Advertisements
Track Severe Weather on mobile